sensor_id;sensor_type;location;lat;lon;timestamp;pressure;altitude;pressure_sealevel;temperature;humidity
15193;BME280;7697;51.630;7.484;2023-05-15T00:03:12;100612.50;;;16.18;83.91
15193;BME280;7697;51.630;7.484;2023-05-15T00:08:17;100613.09;;;16.08;84.38
15193;BME280;7697;51.630;7.484;2023-05-15T00:13:18;100605.88;;;15.97;84.67
15193;BME280;7697;51.630;7.484;2023-05-15T00:18:20;100604.72;;;15.93;85.02
15193;BME280;7697;51.630;7.484;2023-05-15T00:23:23;100607.88;;;15.90;85.01
15193;BME280;7697;51.630;7.484;2023-05-15T00:28:25;100607.75;;;15.85;85.21
15193;BME280;7697;51.630;7.484;2023-05-15T00:33:26;100598.00;;;15.79;85.12
15193;BME280;7697;51.630;7.484;2023-05-15T00:38:29;100595.22;;;15.73;85.28
15193;BME280;7697;51.630;7.484;2023-05-15T00:43:33;100591.72;;;15.61;85.17
15193;BME280;7697;51.630;7.484;2023-05-15T00:48:36;100601.09;;;15.52;85.00
15193;BME280;7697;51.630;7.484;2023-05-15T00:53:41;100598.28;;;15.35;85.96
15193;BME280;7697;51.630;7.484;2023-05-15T00:58:44;100595.03;;;15.33;85.60
15193;BME280;7697;51.630;7.484;2023-05-15T01:03:46;100588.06;;;15.21;86.23
15193;BME280;7697;51.630;7.484;2023-05-15T01:08:50;100582.72;;;15.21;86.11
15193;BME280;7697;51.630;7.484;2023-05-15T01:13:54;100592.66;;;15.14;86.32
15193;BME280;7697;51.630;7.484;2023-05-15T01:18:55;100587.81;;;15.11;85.99
15193;BME280;7697;51.630;7.484;2023-05-15T01:24:07;100588.84;;;15.10;86.42
15193;BME280;7697;51.630;7.484;2023-05-15T01:29:19;100583.63;;;15.03;86.55
15193;BME280;7697;51.630;7.484;2023-05-15T01:34:31;100586.50;;;15.01;86.87
15193;BME280;7697;51.630;7.484;2023-05-15T01:39:34;100581.25;;;14.95;87.03
15193;BME280;7697;51.630;7.484;2023-05-15T01:44:41;100580.53;;;14.88;87.04
15193;BME280;7697;51.630;7.484;2023-05-15T01:49:48;100573.88;;;14.67;87.00
15193;BME280;7697;51.630;7.484;2023-05-15T01:54:52;100576.28;;;14.69;87.18
15193;BME280;7697;51.630;7.484;2023-05-15T01:59:56;100573.06;;;14.67;87.03
15193;BME280;7697;51.630;7.484;2023-05-15T02:05:00;100569.00;;;14.64;87.57
15193;BME280;7697;51.630;7.484;2023-05-15T02:10:02;100575.66;;;14.55;87.82
15193;BME280;7697;51.630;7.484;2023-05-15T02:15:08;100583.38;;;14.45;87.99
15193;BME280;7697;51.630;7.484;2023-05-15T02:20:10;100573.81;;;14.37;88.13
15193;BME280;7697;51.630;7.484;2023-05-15T02:25:12;100574.84;;;14.36;87.95
15193;BME280;7697;51.630;7.484;2023-05-15T02:30:34;100567.38;;;14.26;88.28
15193;BME280;7697;51.630;7.484;2023-05-15T02:35:46;100561.75;;;14.16;88.06
15193;BME280;7697;51.630;7.484;2023-05-15T02:40:49;100571.47;;;14.11;87.47
15193;BME280;7697;51.630;7.484;2023-05-15T02:45:53;100576.63;;;14.06;88.09
15193;BME280;7697;51.630;7.484;2023-05-15T02:50:57;100575.69;;;14.00;88.06
15193;BME280;7697;51.630;7.484;2023-05-15T02:55:58;100576.19;;;13.90;87.85
15193;BME280;7697;51.630;7.484;2023-05-15T03:01:03;100567.69;;;13.82;88.25
15193;BME280;7697;51.630;7.484;2023-05-15T03:06:05;100567.16;;;13.73;88.33
15193;BME280;7697;51.630;7.484;2023-05-15T03:11:07;100571.66;;;13.73;88.15
15193;BME280;7697;51.630;7.484;2023-05-15T03:16:10;100567.00;;;13.68;88.02
15193;BME280;7697;51.630;7.484;2023-05-15T03:21:12;100577.06;;;13.66;88.36
15193;BME280;7697;51.630;7.484;2023-05-15T03:26:14;100559.13;;;13.55;88.76
15193;BME280;7697;51.630;7.484;2023-05-15T03:31:17;100563.94;;;13.46;89.13
15193;BME280;7697;51.630;7.484;2023-05-15T03:36:18;100561.69;;;13.43;89.11
15193;BME280;7697;51.630;7.484;2023-05-15T03:41:22;100564.19;;;13.38;88.84
15193;BME280;7697;51.630;7.484;2023-05-15T03:46:26;100560.34;;;13.34;89.16
15193;BME280;7697;51.630;7.484;2023-05-15T03:51:28;100559.75;;;13.32;89.79
15193;BME280;7697;51.630;7.484;2023-05-15T03:56:30;100560.66;;;13.20;90.31
15193;BME280;7697;51.630;7.484;2023-05-15T04:01:33;100557.19;;;13.19;90.40
15193;BME280;7697;51.630;7.484;2023-05-15T04:06:35;100568.44;;;13.21;90.31
15193;BME280;7697;51.630;7.484;2023-05-15T04:11:37;100563.94;;;13.22;90.31
15193;BME280;7697;51.630;7.484;2023-05-15T04:16:40;100575.97;;;13.24;90.69
15193;BME280;7697;51.630;7.484;2023-05-15T04:21:41;100562.50;;;13.19;90.63
15193;BME280;7697;51.630;7.484;2023-05-15T04:26:43;100567.41;;;13.22;90.95
15193;BME280;7697;51.630;7.484;2023-05-15T04:31:46;100583.94;;;13.24;91.32
15193;BME280;7697;51.630;7.484;2023-05-15T04:36:48;100567.97;;;13.24;91.85
15193;BME280;7697;51.630;7.484;2023-05-15T04:41:50;100567.19;;;13.24;92.59
15193;BME280;7697;51.630;7.484;2023-05-15T04:46:53;100567.97;;;13.31;92.74
15193;BME280;7697;51.630;7.484;2023-05-15T04:51:55;100565.84;;;13.39;93.15
15193;BME280;7697;51.630;7.484;2023-05-15T04:56:57;100558.59;;;13.46;94.41
15193;BME280;7697;51.630;7.484;2023-05-15T05:02:00;100573.41;;;13.61;93.87
15193;BME280;7697;51.630;7.484;2023-05-15T05:07:03;100563.97;;;13.65;95.23
15193;BME280;7697;51.630;7.484;2023-05-15T05:12:05;100574.03;;;13.81;94.74
15193;BME280;7697;51.630;7.484;2023-05-15T05:17:09;100574.34;;;13.91;94.92
15193;BME280;7697;51.630;7.484;2023-05-15T05:22:11;100570.22;;;13.95;96.00
15193;BME280;7697;51.630;7.484;2023-05-15T05:27:13;100580.28;;;14.11;96.43
15193;BME280;7697;51.630;7.484;2023-05-15T05:32:16;100575.25;;;14.21;96.34
15193;BME280;7697;51.630;7.484;2023-05-15T05:37:17;100570.66;;;14.28;96.19
15193;BME280;7697;51.630;7.484;2023-05-15T05:42:19;100576.09;;;14.34;96.91
15193;BME280;7697;51.630;7.484;2023-05-15T05:47:22;100577.28;;;14.38;97.51
15193;BME280;7697;51.630;7.484;2023-05-15T05:52:24;100584.63;;;14.42;97.85
15193;BME280;7697;51.630;7.484;2023-05-15T05:57:26;100568.44;;;14.44;97.77
15193;BME280;7697;51.630;7.484;2023-05-15T06:02:29;100571.81;;;14.51;97.83
15193;BME280;7697;51.630;7.484;2023-05-15T06:07:31;100567.69;;;14.55;98.43
15193;BME280;7697;51.630;7.484;2023-05-15T06:12:33;100586.25;;;14.61;97.95
15193;BME280;7697;51.630;7.484;2023-05-15T06:17:36;100594.31;;;14.55;97.89
15193;BME280;7697;51.630;7.484;2023-05-15T06:22:38;100601.28;;;14.56;97.70
15193;BME280;7697;51.630;7.484;2023-05-15T06:27:40;100604.31;;;14.59;97.96
15193;BME280;7697;51.630;7.484;2023-05-15T06:32:44;100610.38;;;14.67;97.17
15193;BME280;7697;51.630;7.484;2023-05-15T06:37:46;100614.31;;;14.64;97.13
15193;BME280;7697;51.630;7.484;2023-05-15T06:42:49;100609.69;;;14.71;97.32
15193;BME280;7697;51.630;7.484;2023-05-15T06:47:52;100605.88;;;14.67;97.11
15193;BME280;7697;51.630;7.484;2023-05-15T06:52:54;100610.81;;;14.63;96.86
15193;BME280;7697;51.630;7.484;2023-05-15T06:57:56;100598.44;;;14.69;96.90
15193;BME280;7697;51.630;7.484;2023-05-15T07:02:59;100613.09;;;14.78;96.96
15193;BME280;7697;51.630;7.484;2023-05-15T07:08:01;100608.25;;;14.87;97.20
15193;BME280;7697;51.630;7.484;2023-05-15T07:13:03;100610.97;;;14.98;96.26
15193;BME280;7697;51.630;7.484;2023-05-15T07:18:06;100602.63;;;15.07;97.29
15193;BME280;7697;51.630;7.484;2023-05-15T07:23:08;100621.13;;;15.20;96.61
15193;BME280;7697;51.630;7.484;2023-05-15T07:28:10;100620.09;;;15.21;96.33
15193;BME280;7697;51.630;7.484;2023-05-15T07:33:13;100614.16;;;15.19;96.04
15193;BME280;7697;51.630;7.484;2023-05-15T07:38:15;100621.84;;;15.27;96.28
15193;BME280;7697;51.630;7.484;2023-05-15T07:43:17;100621.25;;;15.25;96.53
15193;BME280;7697;51.630;7.484;2023-05-15T07:48:20;100627.88;;;15.34;96.49
15193;BME280;7697;51.630;7.484;2023-05-15T07:53:24;100616.75;;;15.37;96.16
15193;BME280;7697;51.630;7.484;2023-05-15T07:58:26;100608.53;;;15.38;96.26
15193;BME280;7697;51.630;7.484;2023-05-15T08:03:29;100607.81;;;15.43;95.80
15193;BME280;7697;51.630;7.484;2023-05-15T08:08:31;100606.41;;;15.40;95.73
15193;BME280;7697;51.630;7.484;2023-05-15T08:13:33;100600.84;;;15.42;95.17
15193;BME280;7697;51.630;7.484;2023-05-15T08:18:36;100609.91;;;15.53;95.79
15193;BME280;7697;51.630;7.484;2023-05-15T08:23:40;100613.19;;;15.66;94.75
15193;BME280;7697;51.630;7.484;2023-05-15T08:28:42;100606.47;;;15.75;93.89
15193;BME280;7697;51.630;7.484;2023-05-15T08:33:45;100604.84;;;15.98;93.82
15193;BME280;7697;51.630;7.484;2023-05-15T08:38:47;100603.06;;;16.27;92.58
15193;BME280;7697;51.630;7.484;2023-05-15T08:43:50;100600.75;;;16.70;91.43
15193;BME280;7697;51.630;7.484;2023-05-15T08:48:55;100596.09;;;16.94;89.92
15193;BME280;7697;51.630;7.484;2023-05-15T08:53:57;100591.41;;;17.01;90.07
15193;BME280;7697;51.630;7.484;2023-05-15T08:58:59;100597.69;;;17.23;89.01
15193;BME280;7697;51.630;7.484;2023-05-15T09:04:02;100592.16;;;17.47;88.25
15193;BME280;7697;51.630;7.484;2023-05-15T09:09:05;100601.03;;;17.64;87.41
15193;BME280;7697;51.630;7.484;2023-05-15T09:14:07;100600.69;;;17.60;86.18
15193;BME280;7697;51.630;7.484;2023-05-15T09:19:10;100601.28;;;17.63;86.24
15193;BME280;7697;51.630;7.484;2023-05-15T09:24:18;100614.50;;;17.69;85.89
15193;BME280;7697;51.630;7.484;2023-05-15T09:29:20;100603.94;;;17.79;85.16
15193;BME280;7697;51.630;7.484;2023-05-15T09:34:29;100602.78;;;17.92;84.15
15193;BME280;7697;51.630;7.484;2023-05-15T09:39:31;100605.19;;;18.32;84.88
15193;BME280;7697;51.630;7.484;2023-05-15T09:44:33;100594.13;;;18.99;82.21
15193;BME280;7697;51.630;7.484;2023-05-15T09:49:36;100599.81;;;19.34;81.28
15193;BME280;7697;51.630;7.484;2023-05-15T09:54:38;100590.44;;;19.69;80.41
15193;BME280;7697;51.630;7.484;2023-05-15T09:59:42;100590.06;;;19.97;76.41
15193;BME280;7697;51.630;7.484;2023-05-15T10:04:53;100586.41;;;20.18;77.32
15193;BME280;7697;51.630;7.484;2023-05-15T10:09:55;100593.09;;;20.78;76.57
15193;BME280;7697;51.630;7.484;2023-05-15T10:14:57;100586.13;;;21.08;74.84
15193;BME280;7697;51.630;7.484;2023-05-15T10:20:01;100589.94;;;21.32;73.81
15193;BME280;7697;51.630;7.484;2023-05-15T10:25:09;100577.47;;;21.87;72.15
15193;BME280;7697;51.630;7.484;2023-05-15T10:30:14;100574.47;;;22.03;70.63
15193;BME280;7697;51.630;7.484;2023-05-15T10:35:18;100571.91;;;22.37;68.69
15193;BME280;7697;51.630;7.484;2023-05-15T10:40:22;100572.38;;;22.55;68.70
15193;BME280;7697;51.630;7.484;2023-05-15T10:45:25;100571.34;;;22.95;67.51
15193;BME280;7697;51.630;7.484;2023-05-15T10:50:29;100563.81;;;23.26;64.97
15193;BME280;7697;51.630;7.484;2023-05-15T10:55:31;100556.38;;;23.36;64.59
15193;BME280;7697;51.630;7.484;2023-05-15T11:00:33;100550.94;;;23.41;63.71
15193;BME280;7697;51.630;7.484;2023-05-15T11:06:10;100544.56;;;23.27;62.87
15193;BME280;7697;51.630;7.484;2023-05-15T11:16:57;100540.53;;;24.06;60.50
15193;BME280;7697;51.630;7.484;2023-05-15T11:22:01;100536.16;;;23.34;60.92
15193;BME280;7697;51.630;7.484;2023-05-15T11:27:04;100537.66;;;23.45;60.28
15193;BME280;7697;51.630;7.484;2023-05-15T11:32:39;100534.94;;;23.74;56.63
15193;BME280;7697;51.630;7.484;2023-05-15T11:37:44;100523.66;;;23.90;54.65
15193;BME280;7697;51.630;7.484;2023-05-15T11:43:02;100509.19;;;24.00;56.26
15193;BME280;7697;51.630;7.484;2023-05-15T11:48:06;100509.41;;;24.46;56.58
15193;BME280;7697;51.630;7.484;2023-05-15T11:53:10;100506.94;;;24.31;54.52
15193;BME280;7697;51.630;7.484;2023-05-15T11:58:14;100497.06;;;23.98;52.96
15193;BME280;7697;51.630;7.484;2023-05-15T12:03:22;100505.19;;;24.21;53.95
15193;BME280;7697;51.630;7.484;2023-05-15T12:08:25;100498.16;;;24.39;49.19
15193;BME280;7697;51.630;7.484;2023-05-15T12:13:32;100495.34;;;24.82;52.62
15193;BME280;7697;51.630;7.484;2023-05-15T12:18:34;100495.16;;;25.24;49.95
15193;BME280;7697;51.630;7.484;2023-05-15T12:23:37;100491.50;;;25.01;44.72
15193;BME280;7697;51.630;7.484;2023-05-15T12:28:38;100487.31;;;24.39;46.13
15193;BME280;7697;51.630;7.484;2023-05-15T12:33:40;100487.84;;;23.99;48.20
15193;BME280;7697;51.630;7.484;2023-05-15T12:38:43;100486.00;;;23.94;50.88
15193;BME280;7697;51.630;7.484;2023-05-15T12:43:45;100478.50;;;24.10;49.60
15193;BME280;7697;51.630;7.484;2023-05-15T12:48:47;100470.97;;;24.07;46.37
15193;BME280;7697;51.630;7.484;2023-05-15T12:53:53;100479.78;;;23.93;47.86
15193;BME280;7697;51.630;7.484;2023-05-15T12:58:55;100481.97;;;24.34;48.18
15193;BME280;7697;51.630;7.484;2023-05-15T13:03:57;100483.56;;;24.35;47.39
15193;BME280;7697;51.630;7.484;2023-05-15T13:09:00;100479.38;;;24.61;49.08
15193;BME280;7697;51.630;7.484;2023-05-15T13:14:07;100469.19;;;25.78;46.34
15193;BME280;7697;51.630;7.484;2023-05-15T13:19:10;100469.78;;;26.02;42.74
15193;BME280;7697;51.630;7.484;2023-05-15T13:24:13;100478.56;;;25.72;43.83
15193;BME280;7697;51.630;7.484;2023-05-15T13:29:15;100463.28;;;25.49;46.09
15193;BME280;7697;51.630;7.484;2023-05-15T13:34:17;100477.31;;;25.51;43.21
15193;BME280;7697;51.630;7.484;2023-05-15T13:39:20;100474.28;;;25.11;42.75
15193;BME280;7697;51.630;7.484;2023-05-15T13:44:22;100481.38;;;25.07;44.51
15193;BME280;7697;51.630;7.484;2023-05-15T13:49:23;100471.34;;;24.89;43.28
15193;BME280;7697;51.630;7.484;2023-05-15T13:54:26;100463.94;;;25.13;46.10
15193;BME280;7697;51.630;7.484;2023-05-15T13:59:28;100460.84;;;24.87;45.02
15193;BME280;7697;51.630;7.484;2023-05-15T14:04:30;100460.78;;;24.74;43.03
15193;BME280;7697;51.630;7.484;2023-05-15T14:09:33;100460.38;;;24.66;43.25
15193;BME280;7697;51.630;7.484;2023-05-15T14:14:36;100465.53;;;24.82;43.55
15193;BME280;7697;51.630;7.484;2023-05-15T14:19:38;100460.88;;;25.01;44.54
15193;BME280;7697;51.630;7.484;2023-05-15T14:24:42;100460.03;;;25.19;43.77
15193;BME280;7697;51.630;7.484;2023-05-15T14:29:44;100456.31;;;25.29;42.53
15193;BME280;7697;51.630;7.484;2023-05-15T14:34:47;100462.31;;;25.12;41.67
15193;BME280;7697;51.630;7.484;2023-05-15T14:39:50;100462.53;;;24.83;42.43
15193;BME280;7697;51.630;7.484;2023-05-15T14:44:52;100471.06;;;24.90;41.45
15193;BME280;7697;51.630;7.484;2023-05-15T14:49:54;100466.03;;;24.84;40.74
15193;BME280;7697;51.630;7.484;2023-05-15T14:54:57;100462.66;;;24.59;43.13
15193;BME280;7697;51.630;7.484;2023-05-15T14:59:59;100487.84;;;24.17;46.21
15193;BME280;7697;51.630;7.484;2023-05-15T15:05:02;100479.13;;;23.83;48.76
15193;BME280;7697;51.630;7.484;2023-05-15T15:10:07;100486.44;;;23.59;50.28
15193;BME280;7697;51.630;7.484;2023-05-15T15:15:10;100493.66;;;23.39;51.07
15193;BME280;7697;51.630;7.484;2023-05-15T15:20:13;100487.16;;;23.11;51.30
15193;BME280;7697;51.630;7.484;2023-05-15T15:25:17;100488.91;;;22.97;52.14
15193;BME280;7697;51.630;7.484;2023-05-15T15:30:18;100490.63;;;22.88;52.73
15193;BME280;7697;51.630;7.484;2023-05-15T15:35:20;100490.56;;;22.93;53.03
15193;BME280;7697;51.630;7.484;2023-05-15T15:40:23;100486.84;;;22.84;52.81
15193;BME280;7697;51.630;7.484;2023-05-15T15:45:25;100490.69;;;22.73;53.72
15193;BME280;7697;51.630;7.484;2023-05-15T15:50:27;100491.28;;;22.65;51.76
15193;BME280;7697;51.630;7.484;2023-05-15T15:55:30;100489.56;;;22.40;50.22
15193;BME280;7697;51.630;7.484;2023-05-15T16:00:32;100492.59;;;22.28;49.31
15193;BME280;7697;51.630;7.484;2023-05-15T16:05:33;100496.97;;;22.19;51.22
15193;BME280;7697;51.630;7.484;2023-05-15T16:10:37;100505.81;;;22.30;52.87
15193;BME280;7697;51.630;7.484;2023-05-15T16:15:39;100502.63;;;22.28;53.15
15193;BME280;7697;51.630;7.484;2023-05-15T16:20:41;100505.06;;;22.19;52.87
15193;BME280;7697;51.630;7.484;2023-05-15T16:25:45;100503.53;;;22.03;53.08
15193;BME280;7697;51.630;7.484;2023-05-15T16:30:48;100500.91;;;21.83;54.00
15193;BME280;7697;51.630;7.484;2023-05-15T16:35:50;100505.75;;;21.81;55.55
15193;BME280;7697;51.630;7.484;2023-05-15T16:40:54;100514.38;;;21.78;57.00
15193;BME280;7697;51.630;7.484;2023-05-15T16:45:56;100516.06;;;21.58;57.30
15193;BME280;7697;51.630;7.484;2023-05-15T16:50:58;100516.66;;;21.35;58.41
15193;BME280;7697;51.630;7.484;2023-05-15T16:56:02;100517.19;;;21.17;58.32
15193;BME280;7697;51.630;7.484;2023-05-15T17:01:04;100522.84;;;21.05;58.48
15193;BME280;7697;51.630;7.484;2023-05-15T17:11:10;100539.50;;;20.77;58.69
15193;BME280;7697;51.630;7.484;2023-05-15T17:16:12;100529.81;;;20.66;58.73
15193;BME280;7697;51.630;7.484;2023-05-15T17:21:14;100533.03;;;20.57;58.97
15193;BME280;7697;51.630;7.484;2023-05-15T17:26:17;100537.84;;;20.50;59.70
15193;BME280;7697;51.630;7.484;2023-05-15T17:31:19;100537.56;;;20.37;59.70
15193;BME280;7697;51.630;7.484;2023-05-15T17:36:21;100540.81;;;20.39;60.32
15193;BME280;7697;51.630;7.484;2023-05-15T17:41:24;100548.56;;;20.40;61.17
15193;BME280;7697;51.630;7.484;2023-05-15T17:46:26;100558.75;;;20.33;61.22
15193;BME280;7697;51.630;7.484;2023-05-15T17:51:28;100567.06;;;20.21;62.12
15193;BME280;7697;51.630;7.484;2023-05-15T17:56:32;100565.09;;;20.07;61.61
15193;BME280;7697;51.630;7.484;2023-05-15T18:01:34;100574.69;;;19.88;61.86
15193;BME280;7697;51.630;7.484;2023-05-15T18:06:36;100581.59;;;19.73;63.35
15193;BME280;7697;51.630;7.484;2023-05-15T18:11:39;100586.59;;;19.60;64.31
15193;BME280;7697;51.630;7.484;2023-05-15T18:16:41;100598.28;;;19.43;65.27
15193;BME280;7697;51.630;7.484;2023-05-15T18:21:43;100603.75;;;19.22;66.30
15193;BME280;7697;51.630;7.484;2023-05-15T18:26:46;100624.78;;;19.03;66.67
15193;BME280;7697;51.630;7.484;2023-05-15T18:31:47;100627.25;;;18.83;67.49
15193;BME280;7697;51.630;7.484;2023-05-15T18:36:49;100636.47;;;18.65;68.01
15193;BME280;7697;51.630;7.484;2023-05-15T18:41:52;100646.75;;;18.51;68.64
15193;BME280;7697;51.630;7.484;2023-05-15T18:46:54;100653.03;;;18.40;69.33
15193;BME280;7697;51.630;7.484;2023-05-15T18:51:56;100653.38;;;18.27;69.87
15193;BME280;7697;51.630;7.484;2023-05-15T18:56:59;100657.97;;;18.10;70.36
15193;BME280;7697;51.630;7.484;2023-05-15T19:02:01;100663.84;;;18.07;70.34
15193;BME280;7697;51.630;7.484;2023-05-15T19:07:03;100659.06;;;17.92;70.81
15193;BME280;7697;51.630;7.484;2023-05-15T19:12:06;100673.63;;;17.79;71.45
15193;BME280;7697;51.630;7.484;2023-05-15T19:17:08;100676.59;;;17.66;71.81
15193;BME280;7697;51.630;7.484;2023-05-15T19:22:10;100686.41;;;17.60;72.44
15193;BME280;7697;51.630;7.484;2023-05-15T19:27:13;100683.97;;;17.59;72.40
15193;BME280;7697;51.630;7.484;2023-05-15T19:32:15;100684.44;;;17.56;72.66
15193;BME280;7697;51.630;7.484;2023-05-15T19:37:16;100697.75;;;17.51;73.09
15193;BME280;7697;51.630;7.484;2023-05-15T19:42:20;100705.56;;;17.52;73.07
15193;BME280;7697;51.630;7.484;2023-05-15T19:47:22;100700.66;;;17.49;73.27
15193;BME280;7697;51.630;7.484;2023-05-15T19:52:25;100707.53;;;17.45;73.49
15193;BME280;7697;51.630;7.484;2023-05-15T19:57:29;100705.59;;;17.41;74.01
15193;BME280;7697;51.630;7.484;2023-05-15T20:02:30;100728.06;;;17.40;74.08
15193;BME280;7697;51.630;7.484;2023-05-15T20:07:32;100726.13;;;17.35;74.48
15193;BME280;7697;51.630;7.484;2023-05-15T20:12:35;100725.13;;;17.24;74.96
15193;BME280;7697;51.630;7.484;2023-05-15T20:17:37;100726.56;;;17.15;75.03
15193;BME280;7697;51.630;7.484;2023-05-15T20:22:41;100744.38;;;17.10;75.39
15193;BME280;7697;51.630;7.484;2023-05-15T20:27:44;100744.19;;;17.00;75.80
15193;BME280;7697;51.630;7.484;2023-05-15T20:32:45;100746.88;;;16.88;76.41
15193;BME280;7697;51.630;7.484;2023-05-15T20:37:47;100742.13;;;16.78;76.89
15193;BME280;7697;51.630;7.484;2023-05-15T20:42:51;100753.06;;;16.77;77.04
15193;BME280;7697;51.630;7.484;2023-05-15T20:47:52;100740.63;;;16.59;77.74
15193;BME280;7697;51.630;7.484;2023-05-15T20:52:54;100742.94;;;16.56;78.20
15193;BME280;7697;51.630;7.484;2023-05-15T20:57:57;100745.75;;;16.61;78.08
15193;BME280;7697;51.630;7.484;2023-05-15T21:02:59;100743.91;;;16.73;78.29
15193;BME280;7697;51.630;7.484;2023-05-15T21:08:01;100740.50;;;16.77;78.30
15193;BME280;7697;51.630;7.484;2023-05-15T21:13:04;100745.72;;;16.84;78.73
15193;BME280;7697;51.630;7.484;2023-05-15T21:18:05;100751.81;;;16.68;79.31
15193;BME280;7697;51.630;7.484;2023-05-15T21:23:07;100757.75;;;16.70;79.53
15193;BME280;7697;51.630;7.484;2023-05-15T21:28:10;100757.28;;;16.73;79.32
15193;BME280;7697;51.630;7.484;2023-05-15T21:33:12;100755.38;;;16.73;79.74
15193;BME280;7697;51.630;7.484;2023-05-15T21:38:13;100752.50;;;16.75;79.73
15193;BME280;7697;51.630;7.484;2023-05-15T21:43:17;100758.41;;;16.77;79.14
15193;BME280;7697;51.630;7.484;2023-05-15T21:48:18;100748.44;;;16.72;79.46
15193;BME280;7697;51.630;7.484;2023-05-15T21:53:20;100755.06;;;16.70;79.56
15193;BME280;7697;51.630;7.484;2023-05-15T21:58:23;100758.69;;;16.64;79.72
15193;BME280;7697;51.630;7.484;2023-05-15T22:03:25;100760.28;;;16.41;79.25
15193;BME280;7697;51.630;7.484;2023-05-15T22:08:27;100764.09;;;16.10;79.44
15193;BME280;7697;51.630;7.484;2023-05-15T22:13:30;100762.84;;;16.01;79.54
15193;BME280;7697;51.630;7.484;2023-05-15T22:18:32;100769.28;;;15.94;79.51
15193;BME280;7697;51.630;7.484;2023-05-15T22:23:34;100776.38;;;15.88;79.82
15193;BME280;7697;51.630;7.484;2023-05-15T22:28:37;100776.16;;;15.90;79.97
15193;BME280;7697;51.630;7.484;2023-05-15T22:33:39;100772.78;;;15.94;79.77
15193;BME280;7697;51.630;7.484;2023-05-15T22:38:40;100776.28;;;15.95;80.27
15193;BME280;7697;51.630;7.484;2023-05-15T22:43:44;100777.66;;;15.86;80.60
15193;BME280;7697;51.630;7.484;2023-05-15T22:48:45;100792.25;;;15.71;81.93
15193;BME280;7697;51.630;7.484;2023-05-15T22:53:47;100798.00;;;15.57;82.92
15193;BME280;7697;51.630;7.484;2023-05-15T22:58:50;100803.03;;;15.47;84.88
15193;BME280;7697;51.630;7.484;2023-05-15T23:03:52;100805.75;;;15.28;86.21
15193;BME280;7697;51.630;7.484;2023-05-15T23:08:54;100811.59;;;15.19;86.72
15193;BME280;7697;51.630;7.484;2023-05-15T23:13:57;100816.94;;;15.19;86.65
15193;BME280;7697;51.630;7.484;2023-05-15T23:18:59;100812.19;;;14.84;86.95
15193;BME280;7697;51.630;7.484;2023-05-15T23:24:01;100820.25;;;14.78;88.02
15193;BME280;7697;51.630;7.484;2023-05-15T23:29:04;100821.63;;;14.62;88.26
15193;BME280;7697;51.630;7.484;2023-05-15T23:34:06;100822.59;;;14.68;88.32
15193;BME280;7697;51.630;7.484;2023-05-15T23:39:08;100824.19;;;14.50;89.38
15193;BME280;7697;51.630;7.484;2023-05-15T23:44:11;100832.84;;;14.21;90.15
15193;BME280;7697;51.630;7.484;2023-05-15T23:49:13;100837.88;;;14.04;90.60
15193;BME280;7697;51.630;7.484;2023-05-15T23:54:15;100840.19;;;13.87;90.86
15193;BME280;7697;51.630;7.484;2023-05-15T23:59:18;100838.63;;;13.80;90.60
